フォルタレザ の空港の天気 - METARとTAF

フォルタレザ/ピント・マーティンズ国際空港 ( SBFZ / FOR ) - ブラジル セアラー州フォルタレザ
飛行場実況気象(Metar)
観測時間10/22 12:00 BRT (10/22 15:00 UTC)
風向・風速東 9m/s
視程10km以上
天気現象
全天の8割程度の雲 雲底高度 760m
気温30℃
湿度70%
気圧1013hPa
METARSBFZ 221500Z 10017KT 9999 BKN025 30/24 Q1013
過去の天気等 Google飛行場航空写真 Wunderground天気予報

過去48時間のMETAR

飛行場予報(TAF)
発表時間: -
22日11時 BRT ~ 22日17時 BRT に 確率 40% で一時的に
風向・風速南東 9m/s
視程5000m
天気現象しゅう雨
全天の8割程度の雲 雲底高度 370m
22日17時 BRT ~ 22日19時 BRT に徐々に
風向・風速東北東 5m/s
視程8000m
全天の4割程度の雲 雲底高度 520m
22日21時 BRT ~ 22日23時 BRT に徐々に
視程10km以上
全天の4割程度の雲 雲底高度 670m
23日1時 BRT ~ 23日2時 BRT に徐々に
風向・風速東 8m/s
23日7時 BRT ~ 23日8時 BRT に徐々に
風向・風速東南東 10m/s
全天の8割程度の雲 雲底高度 760m
TAF AMD SBFZ 2212/2312 12015KT 7000 BKN017 TX31/2217Z TN25/2309Z
PROB40 TEMPO 2214/2220 13017KT 5000 SHRA BKN012
BECMG 2220/2222 07010KT 8000 SCT017
BECMG 2300/2302 9999 SCT022
BECMG 2304/2305 09015KT
BECMG 2310/2311 12020KT BKN025 RMK PHN